Airfield :
LOGIN :

Register | Disclaimer

   EN    FR    IT 

 










Legend :    VFR   Marginal VFR   IFR   Intensive IFR   Very Intensive IFR
Visi :
Ceiling :
>= 8 km
>= 3000ft
5 to 8 km
1000 to 3000 ft
1500m to 5 km
500 to 1000 ft
800 to 1500m
200 to 500 ft
< 800m
< 200 ft
Symbols :   Thunderstorms  Fog  Heavy snow  Heavy precipitations  Wind > 20 kt
SIGMETs :     Misc.  Thunderstorms  Icing  Turbulence  Mountain Waves  Volcanic Ashes







- Airport Elevation : 2595 ft
- IATA code : SLM


LESA - Salamanca Matacan

CURRENT METAR :
  • 120430Z AUTO 00000KT 6000 NSC M02/M02 Q1023

EXPIRED METARs :
  • 120400Z AUTO 00000KT 6000 NCD M02/M02 Q1023
  • 120330Z AUTO 00000KT 2500 BR NSC M01/M02 Q1023
  • 120300Z AUTO 00000KT 2800 BR NSC M02/M02 Q1023
  • 120230Z AUTO 00000KT 4200 BR NSC M02/M02 Q1023
  • 120200Z AUTO 18002KT 7000 NCD M01/M02 Q1023

TAF TAF LESA
Valid from the 12 at 00:00 until the 13 at 00:00 UTC


112300Z 1200/1224 VRB04KT CAVOK TX11/1214Z TNM01/1205Z
PROB40
TEMPO 1202/1212 3000 BR OVC006
PROB30
TEMPO 1206/1210 0200 FG OVC002
BECMG 1220/1222 22015G25KT RA BKN014
No reported NOTAMs for that airfield.



MET'MAP, your aeronautical weather chart ! - Copyright ORBIFLY December 2007 - Disclaimer

ORBIFLY MET'MAP TEAM :

Programming & Development : Alexandra Zaïnal
Concept & Development : Baudouin d'Aumeries
Co-Development & Prog : Marc-Olivier Méhu
Technical & hardware support : Manuel Goepfert

Contact : metmap@orbifly.com




SOURCES & CREDITS :

   NOAA